Orbital elements of SL-12 DEB
| Launched | 24 December 2006 |
| Flight ended | – |
| Launch site | Tyuratam Missile and Space Center, Kazakhstan (Also known as Baikonur Cosmodrome) |
| Owner | Commonwealth of Independent States (former USSR) |
| NORAD ID | 41806 |
| Date fetched |
Epoch osculation |
Inc. [°] |
Ecc. | RA asc node [hr] |
Arg Peri. [°] |
Mean anom [°] |
Mean motion [rev/day] |
Abs. mag |
| Date fetched |
Epoch osculation |
Inc. [°] |
Ecc. | RA asc node [hr] |
Arg Peri. [°] |
Mean anom [°] |
Mean motion [rev/day] |
Abs. mag |
| 2026 May 06 17:57 | 2026 May 04 18:19:58 | 64.5287 | 0.56491 | 3.1442 | 317.0145 | 10.6295 | 4.14259 | – |
| 2026 May 05 17:57 | 2026 May 04 18:19:58 | 64.5287 | 0.56491 | 3.1442 | 317.0145 | 10.6295 | 4.14259 | – |
| 2026 May 04 17:57 | 2026 Apr 27 18:19:14 | 64.5195 | 0.56496 | 3.3039 | 317.2322 | 10.6295 | 4.14259 | – |
| 2026 May 03 17:57 | 2026 Apr 27 18:19:14 | 64.5195 | 0.56496 | 3.3039 | 317.2322 | 10.6295 | 4.14259 | – |
| 2026 May 02 17:57 | 2026 Apr 27 18:19:14 | 64.5195 | 0.56496 | 3.3039 | 317.2322 | 10.6295 | 4.14259 | – |
| 2026 May 01 17:56 | 2026 Apr 27 18:19:14 | 64.5195 | 0.56496 | 3.3039 | 317.2322 | 10.6295 | 4.14259 | – |
| 2026 Apr 30 17:56 | 2026 Apr 27 18:19:14 | 64.5195 | 0.56496 | 3.3039 | 317.2322 | 10.6295 | 4.14259 | – |
| 2026 Apr 29 17:57 | 2026 Apr 20 06:43:19 | 64.5094 | 0.56504 | 3.4748 | 317.4625 | 10.6295 | 4.14259 | – |
| 2026 Apr 28 17:56 | 2026 Apr 20 06:43:19 | 64.5094 | 0.56504 | 3.4748 | 317.4625 | 10.6295 | 4.14259 | – |
| 2026 Apr 27 17:58 | 2026 Apr 20 06:43:19 | 64.5094 | 0.56504 | 3.4748 | 317.4625 | 10.6295 | 4.14259 | – |
| 2026 Apr 26 17:58 | 2026 Apr 20 06:43:19 | 64.5094 | 0.56504 | 3.4748 | 317.4625 | 10.6295 | 4.14259 | – |
| 2026 Apr 25 17:58 | 2026 Apr 20 06:43:19 | 64.5094 | 0.56504 | 3.4748 | 317.4625 | 10.6295 | 4.14259 | – |
| 2026 Apr 24 17:59 | 2026 Apr 20 06:43:19 | 64.5094 | 0.56504 | 3.4748 | 317.4625 | 10.6295 | 4.14259 | – |
| 2026 Apr 23 17:57 | 2026 Apr 19 01:45:16 | 64.5083 | 0.56505 | 3.5024 | 317.4987 | 10.6295 | 4.14259 | – |
| 2026 Apr 22 17:57 | 2026 Apr 19 01:45:16 | 64.5083 | 0.56505 | 3.5024 | 317.4987 | 10.6295 | 4.14259 | – |
| 2026 Apr 21 17:57 | 2026 Apr 19 01:45:16 | 64.5083 | 0.56505 | 3.5024 | 317.4987 | 10.6295 | 4.14259 | – |
| 2026 Apr 20 17:57 | 2026 Apr 19 01:45:16 | 64.5083 | 0.56505 | 3.5024 | 317.4987 | 10.6295 | 4.14259 | – |
| 2026 Apr 19 17:58 | 2026 Apr 19 01:45:16 | 64.5083 | 0.56505 | 3.5024 | 317.4987 | 10.6295 | 4.14259 | – |
| 2026 Apr 18 17:56 | 2026 Apr 12 19:07:23 | 64.5020 | 0.56512 | 3.6458 | 317.6908 | 10.6295 | 4.14259 | – |
| 2026 Apr 16 17:57 | 2026 Apr 12 19:07:23 | 64.5020 | 0.56512 | 3.6458 | 317.6908 | 10.6295 | 4.14259 | – |
| 2026 Apr 14 17:57 | 2026 Apr 12 19:07:23 | 64.5020 | 0.56512 | 3.6458 | 317.6908 | 10.6295 | 4.14259 | – |
| 2026 Apr 13 17:57 | 2026 Apr 12 19:07:23 | 64.5020 | 0.56512 | 3.6458 | 317.6908 | 10.6295 | 4.14259 | – |
| 2026 Apr 12 17:57 | 2026 Apr 02 21:35:20 | 64.4897 | 0.56524 | 3.8722 | 317.9914 | 10.6295 | 4.14259 | – |
| 2026 Apr 11 17:57 | 2026 Apr 02 21:35:20 | 64.4897 | 0.56524 | 3.8722 | 317.9914 | 10.6295 | 4.14259 | – |
| 2026 Apr 10 17:58 | 2026 Apr 02 21:35:20 | 64.4897 | 0.56524 | 3.8722 | 317.9914 | 10.6295 | 4.14259 | – |
| 2026 Apr 09 18:01 | 2026 Apr 02 21:35:20 | 64.4897 | 0.56524 | 3.8722 | 317.9914 | 10.6295 | 4.14259 | – |